createdAt,value
2022-08-08T00:01:14.436Z,48.08
2022-08-08T00:06:42.569Z,45.10
2022-08-08T00:12:09.980Z,48.03
2022-08-08T00:18:01.666Z,47.84
2022-08-08T00:23:42.299Z,48.68
2022-08-08T00:28:49.973Z,42.76
2022-08-08T00:34:46.196Z,47.47
2022-08-08T00:41:12.460Z,49.25
2022-08-08T00:45:49.192Z,42.91
2022-08-08T00:51:22.466Z,45.37
2022-08-08T00:56:50.002Z,46.88
2022-08-08T01:03:59.002Z,43.40
2022-08-08T01:08:09.601Z,41.54
2022-08-08T01:13:43.949Z,50.61
2022-08-08T01:19:02.514Z,49.57
2022-08-08T01:24:34.611Z,48.00
2022-08-08T01:29:58.884Z,44.47
2022-08-08T01:35:29.597Z,50.07
2022-08-08T01:41:01.622Z,48.80
2022-08-08T01:46:43.891Z,47.94
2022-08-08T01:53:03.991Z,43.21
2022-08-08T01:58:11.858Z,50.84
2022-08-08T02:03:56.090Z,49.32
2022-08-08T02:10:01.837Z,48.23
2022-08-08T02:15:00.926Z,45.79
2022-08-08T02:21:01.311Z,49.40
2022-08-08T02:26:46.642Z,49.75
2022-08-08T02:31:59.624Z,49.38
2022-08-08T02:37:53.282Z,49.07
2022-08-08T02:44:42.817Z,49.91
2022-08-08T02:48:58.525Z,47.43
2022-08-08T02:54:13.332Z,48.37
2022-08-08T02:59:58.442Z,50.16
2022-08-08T03:05:58.713Z,47.92
2022-08-08T03:11:05.272Z,48.11
2022-08-08T03:16:48.632Z,44.93
2022-08-08T03:21:58.954Z,51.29
2022-08-08T03:27:15.801Z,50.84
2022-08-08T03:32:41.401Z,44.42
2022-08-08T03:38:54.243Z,48.00
2022-08-08T03:43:15.922Z,45.65
2022-08-08T03:49:09.910Z,47.65
2022-08-08T03:53:47.690Z,50.03
2022-08-08T03:58:54.293Z,51.45
2022-08-08T04:04:02.111Z,51.98
2022-08-08T04:09:25.259Z,53.15
2022-08-08T04:14:34.378Z,53.25
2022-08-08T04:19:38.545Z,52.19
2022-08-08T04:24:41.744Z,54.30
2022-08-08T04:30:01.047Z,52.95
2022-08-08T04:35:13.471Z,51.21
2022-08-08T04:40:19.274Z,49.78
2022-08-08T04:45:29.679Z,51.43
2022-08-08T04:50:38.344Z,50.29
2022-08-08T04:55:55.456Z,49.93
2022-08-08T05:01:00.338Z,49.30
2022-08-08T05:06:25.900Z,48.79
2022-08-08T05:11:38.966Z,49.09
2022-08-08T05:16:51.030Z,51.54
2022-08-08T05:22:01.640Z,47.87
2022-08-08T05:27:08.189Z,51.15
2022-08-08T05:32:14.598Z,51.52
2022-08-08T05:37:24.045Z,49.38
2022-08-08T05:42:49.826Z,51.02
2022-08-08T05:48:01.329Z,52.84
2022-08-08T05:53:54.829Z,48.70
2022-08-08T05:58:33.217Z,47.60
2022-08-08T06:03:40.450Z,48.52
2022-08-08T06:08:54.906Z,53.14
2022-08-08T06:14:00.541Z,50.07
2022-08-08T06:19:04.670Z,49.73
2022-08-08T06:24:13.720Z,48.37
2022-08-08T06:29:56.895Z,47.16
2022-08-08T06:35:30.638Z,46.96
2022-08-08T06:40:40.715Z,48.84
2022-08-08T06:45:55.276Z,46.43
2022-08-08T06:51:00.341Z,49.03
2022-08-08T06:56:11.512Z,46.30
2022-08-08T07:02:16.430Z,46.66
2022-08-08T07:06:56.659Z,45.50
2022-08-08T07:12:07.390Z,46.02
2022-08-08T07:17:18.968Z,47.55
2022-08-08T07:22:37.666Z,47.63
2022-08-08T07:28:00.837Z,45.83
2022-08-08T07:33:06.861Z,45.35
2022-08-08T07:38:18.418Z,44.47
2022-08-08T07:43:37.711Z,45.04
2022-08-08T07:48:46.248Z,42.96
2022-08-08T07:54:05.664Z,43.70
2022-08-08T07:59:15.849Z,43.45
2022-08-08T08:04:43.448Z,42.00
2022-08-08T08:09:46.481Z,43.66
2022-08-08T08:14:56.239Z,43.18
2022-08-08T08:20:04.980Z,42.75
2022-08-08T08:25:09.011Z,41.26
2022-08-08T08:30:15.053Z,41.49
2022-08-08T08:35:21.654Z,40.38
2022-08-08T08:40:35.313Z,38.88
2022-08-08T08:45:39.662Z,37.48
2022-08-08T08:50:48.421Z,38.36
2022-08-08T08:56:01.812Z,38.93
2022-08-08T09:01:15.172Z,37.77
2022-08-08T09:06:34.248Z,38.54
2022-08-08T09:11:47.227Z,39.16
2022-08-08T09:17:12.939Z,37.54
2022-08-08T09:22:26.629Z,36.29
2022-08-08T09:27:56.460Z,33.31
2022-08-08T09:33:53.760Z,33.49
2022-08-08T09:38:59.277Z,33.84
2022-08-08T09:44:33.741Z,33.66
2022-08-08T09:49:42.825Z,33.09
2022-08-08T09:54:54.154Z,32.39
2022-08-08T10:00:35.778Z,32.01
2022-08-08T10:05:26.316Z,28.69
2022-08-08T10:10:38.195Z,29.36
2022-08-08T10:16:00.820Z,27.55
2022-08-08T10:21:25.292Z,29.63
2022-08-08T10:27:02.548Z,29.29
2022-08-08T10:32:27.887Z,33.44
2022-08-08T10:37:35.385Z,32.66
2022-08-08T10:42:43.685Z,30.91
2022-08-08T10:47:57.014Z,31.02
2022-08-08T10:53:12.727Z,34.63
2022-08-08T10:58:16.015Z,34.47
2022-08-08T11:03:18.958Z,32.66
2022-08-08T11:08:46.232Z,30.78
2022-08-08T11:14:00.098Z,27.35
2022-08-08T11:19:05.244Z,29.88
2022-08-08T11:24:14.690Z,29.92
2022-08-08T11:29:18.102Z,30.43
2022-08-08T11:34:34.494Z,28.51
2022-08-08T11:39:57.183Z,27.59
2022-08-08T11:45:00.937Z,26.44
2022-08-08T11:50:10.068Z,23.31
2022-08-08T11:55:17.958Z,23.19
2022-08-08T12:00:28.607Z,23.07
2022-08-08T12:05:37.036Z,22.12
2022-08-08T12:10:53.074Z,23.23
2022-08-08T12:16:05.953Z,23.90
2022-08-08T12:21:59.895Z,23.96
2022-08-08T12:26:54.182Z,22.66
2022-08-08T12:32:17.339Z,24.09
2022-08-08T12:37:41.840Z,22.93
2022-08-08T12:42:49.969Z,22.72
2022-08-08T12:48:10.203Z,22.17
2022-08-08T12:53:36.532Z,26.81
2022-08-08T12:58:51.900Z,26.14
2022-08-08T13:03:54.451Z,26.52
2022-08-08T13:09:10.415Z,23.32
2022-08-08T13:14:15.361Z,25.10
2022-08-08T13:19:23.343Z,21.80
2022-08-08T13:24:40.865Z,21.71
2022-08-08T13:29:57.893Z,25.23
2022-08-08T13:35:00.535Z,23.52
2022-08-08T13:40:05.567Z,23.84
2022-08-08T13:45:12.508Z,26.77
2022-08-08T13:50:36.756Z,27.38
2022-08-08T13:55:42.673Z,27.14
2022-08-08T14:00:50.688Z,26.91
2022-08-08T14:05:57.603Z,26.95
2022-08-08T14:11:04.419Z,24.65
2022-08-08T14:16:16.225Z,27.54
2022-08-08T14:21:20.882Z,27.82
2022-08-08T14:26:28.196Z,28.66
2022-08-08T14:32:06.079Z,28.52
2022-08-08T14:36:54.510Z,25.55
2022-08-08T14:42:03.514Z,26.89
2022-08-08T14:47:21.249Z,25.61
2022-08-08T14:52:24.340Z,23.88
2022-08-08T14:58:06.246Z,27.20
2022-08-08T15:03:01.604Z,29.38
2022-08-08T15:08:22.335Z,30.87
2022-08-08T15:13:40.610Z,26.67
2022-08-08T15:18:58.712Z,30.03
2022-08-08T15:24:01.530Z,29.37
2022-08-08T15:29:06.676Z,30.49
2022-08-08T15:34:18.658Z,27.75
2022-08-08T15:39:37.931Z,31.59
2022-08-08T15:44:42.940Z,32.94
2022-08-08T15:49:49.035Z,33.02
2022-08-08T15:54:52.581Z,29.43
2022-08-08T16:00:06.848Z,32.96
2022-08-08T16:05:18.834Z,34.32
2022-08-08T16:13:02.147Z,31.81
2022-08-08T16:15:57.970Z,35.35
2022-08-08T16:21:26.036Z,35.33
2022-08-08T16:26:33.924Z,36.45
2022-08-08T16:31:44.804Z,37.09
2022-08-08T16:36:51.228Z,37.99
2022-08-08T16:41:54.000Z,37.89
2022-08-08T16:47:40.746Z,37.39
2022-08-08T16:55:22.472Z,35.41
2022-08-08T16:58:14.214Z,37.52
2022-08-08T17:03:24.846Z,37.90
2022-08-08T17:08:37.995Z,38.12
2022-08-08T17:14:00.821Z,38.95
2022-08-08T17:19:03.993Z,38.20
2022-08-08T17:24:19.429Z,39.10
2022-08-08T17:29:33.696Z,38.22
2022-08-08T17:34:59.961Z,39.16
2022-08-08T17:40:10.538Z,39.05
2022-08-08T17:45:23.396Z,39.74
2022-08-08T17:50:26.594Z,38.48
2022-08-08T17:56:06.108Z,36.64
2022-08-08T18:00:56.188Z,39.42
2022-08-08T18:05:59.736Z,41.11
2022-08-08T18:11:22.665Z,40.39
2022-08-08T18:16:26.976Z,40.42
2022-08-08T18:22:01.407Z,40.14
2022-08-08T18:26:58.879Z,40.88
2022-08-08T18:32:03.723Z,39.59
2022-08-08T18:37:08.395Z,38.80
2022-08-08T18:42:16.578Z,40.43
2022-08-08T18:47:20.378Z,40.13
2022-08-08T18:52:26.520Z,39.76
2022-08-08T18:57:31.587Z,39.16
2022-08-08T19:02:54.714Z,39.05
2022-08-08T19:07:58.881Z,40.55
2022-08-08T19:13:02.462Z,41.03
2022-08-08T19:18:31.986Z,35.59
2022-08-08T19:23:29.359Z,37.87
2022-08-08T19:28:38.141Z,41.08
2022-08-08T19:34:04.643Z,40.78
2022-08-08T19:39:06.796Z,41.90
2022-08-08T19:44:12.565Z,41.28
2022-08-08T19:49:15.860Z,39.04
2022-08-08T19:54:18.402Z,38.18
2022-08-08T19:59:22.684Z,41.82
2022-08-08T20:04:25.357Z,39.84
2022-08-08T20:09:29.892Z,42.05
2022-08-08T20:14:35.933Z,40.94
2022-08-08T20:19:44.745Z,41.24
2022-08-08T20:24:50.309Z,40.80
2022-08-08T20:29:55.700Z,42.19
2022-08-08T20:35:04.190Z,42.31
2022-08-08T20:40:08.246Z,42.58
2022-08-08T20:45:11.297Z,42.71
2022-08-08T20:50:15.470Z,41.40
2022-08-08T20:55:25.987Z,43.40
2022-08-08T21:00:28.743Z,42.96
2022-08-08T21:05:32.940Z,43.10
2022-08-08T21:10:52.434Z,44.10
2022-08-08T21:16:04.909Z,43.42
2022-08-08T21:21:29.732Z,42.85
2022-08-08T21:26:42.584Z,41.51
2022-08-08T21:31:53.320Z,43.24
2022-08-08T21:37:06.793Z,39.23
2022-08-08T21:42:15.074Z,37.78
2022-08-08T21:48:02.154Z,38.51
2022-08-08T21:54:30.979Z,39.12
2022-08-08T21:58:07.576Z,39.87
2022-08-08T22:03:17.882Z,40.43
2022-08-08T22:08:24.244Z,44.69
2022-08-08T22:13:27.002Z,43.63
2022-08-08T22:18:52.561Z,39.33
2022-08-08T22:23:55.848Z,44.79
2022-08-08T22:29:14.788Z,45.63
2022-08-08T22:34:27.027Z,45.34
2022-08-08T22:39:45.873Z,40.96
2022-08-08T22:44:53.419Z,41.30
2022-08-08T22:50:00.880Z,42.46
2022-08-08T22:55:05.913Z,47.68
2022-08-08T23:00:12.139Z,47.36
2022-08-08T23:05:16.166Z,42.58
2022-08-08T23:10:21.324Z,41.20
2022-08-08T23:16:37.786Z,42.54
2022-08-08T23:20:54.923Z,46.93
2022-08-08T23:25:58.631Z,46.77
2022-08-08T23:31:02.354Z,41.17
2022-08-08T23:36:08.443Z,48.14
2022-08-08T23:41:23.218Z,47.22
2022-08-08T23:49:03.737Z,46.39
2022-08-08T23:52:06.104Z,44.47
2022-08-08T23:57:15.235Z,45.65
